sensor_id;sensor_type;location;lat;lon;timestamp;P1;durP1;ratioP1;P2;durP2;ratioP2
173;SDS011;75;48.784;9.364;2023-02-24T00:02:17;64.73;;;32.80;;
173;SDS011;75;48.784;9.364;2023-02-24T00:05:02;81.77;;;38.80;;
173;SDS011;75;48.784;9.364;2023-02-24T00:07:47;68.53;;;33.20;;
173;SDS011;75;48.784;9.364;2023-02-24T00:10:32;59.27;;;29.13;;
173;SDS011;75;48.784;9.364;2023-02-24T00:13:16;56.60;;;28.13;;
173;SDS011;75;48.784;9.364;2023-02-24T00:16:05;58.70;;;28.90;;
173;SDS011;75;48.784;9.364;2023-02-24T00:18:50;56.83;;;30.23;;
173;SDS011;75;48.784;9.364;2023-02-24T00:21:34;53.57;;;27.53;;
173;SDS011;75;48.784;9.364;2023-02-24T00:24:23;53.10;;;28.80;;
173;SDS011;75;48.784;9.364;2023-02-24T00:27:08;57.93;;;29.90;;
173;SDS011;75;48.784;9.364;2023-02-24T00:29:54;58.20;;;28.43;;
173;SDS011;75;48.784;9.364;2023-02-24T00:32:40;58.63;;;29.60;;
173;SDS011;75;48.784;9.364;2023-02-24T00:35:24;63.97;;;33.30;;
173;SDS011;75;48.784;9.364;2023-02-24T00:38:09;68.00;;;34.30;;
173;SDS011;75;48.784;9.364;2023-02-24T00:40:55;66.57;;;34.00;;
173;SDS011;75;48.784;9.364;2023-02-24T00:43:42;71.43;;;35.40;;
173;SDS011;75;48.784;9.364;2023-02-24T00:46:29;67.33;;;33.23;;
173;SDS011;75;48.784;9.364;2023-02-24T00:49:16;65.57;;;32.80;;
173;SDS011;75;48.784;9.364;2023-02-24T00:52:01;72.00;;;35.00;;
173;SDS011;75;48.784;9.364;2023-02-24T00:54:51;67.90;;;34.33;;
173;SDS011;75;48.784;9.364;2023-02-24T00:57:35;58.40;;;30.50;;
173;SDS011;75;48.784;9.364;2023-02-24T01:00:22;52.20;;;27.80;;
173;SDS011;75;48.784;9.364;2023-02-24T01:03:07;50.00;;;27.60;;
173;SDS011;75;48.784;9.364;2023-02-24T01:05:51;59.00;;;31.53;;
173;SDS011;75;48.784;9.364;2023-02-24T01:08:37;56.63;;;29.93;;
173;SDS011;75;48.784;9.364;2023-02-24T01:11:26;58.17;;;30.63;;
173;SDS011;75;48.784;9.364;2023-02-24T01:14:32;63.57;;;31.87;;
173;SDS011;75;48.784;9.364;2023-02-24T01:17:17;68.43;;;34.80;;
173;SDS011;75;48.784;9.364;2023-02-24T01:20:04;77.33;;;36.50;;
173;SDS011;75;48.784;9.364;2023-02-24T01:22:59;71.20;;;36.30;;
173;SDS011;75;48.784;9.364;2023-02-24T01:25:46;64.87;;;34.83;;
173;SDS011;75;48.784;9.364;2023-02-24T01:28:30;67.13;;;34.27;;
173;SDS011;75;48.784;9.364;2023-02-24T01:31:15;66.80;;;33.63;;
173;SDS011;75;48.784;9.364;2023-02-24T01:34:03;60.60;;;32.57;;
173;SDS011;75;48.784;9.364;2023-02-24T01:36:53;64.73;;;33.93;;
173;SDS011;75;48.784;9.364;2023-02-24T01:39:38;61.30;;;34.33;;
173;SDS011;75;48.784;9.364;2023-02-24T01:42:23;58.93;;;33.23;;
173;SDS011;75;48.784;9.364;2023-02-24T01:45:12;57.63;;;33.27;;
173;SDS011;75;48.784;9.364;2023-02-24T01:47:58;60.23;;;33.07;;
173;SDS011;75;48.784;9.364;2023-02-24T01:50:44;57.17;;;31.77;;
173;SDS011;75;48.784;9.364;2023-02-24T01:53:29;58.23;;;33.00;;
173;SDS011;75;48.784;9.364;2023-02-24T01:56:15;52.27;;;30.40;;
173;SDS011;75;48.784;9.364;2023-02-24T01:59:00;56.37;;;31.73;;
173;SDS011;75;48.784;9.364;2023-02-24T02:01:45;61.70;;;33.00;;
173;SDS011;75;48.784;9.364;2023-02-24T02:04:45;59.40;;;33.30;;
173;SDS011;75;48.784;9.364;2023-02-24T02:07:31;56.97;;;32.90;;
173;SDS011;75;48.784;9.364;2023-02-24T02:10:16;63.00;;;34.70;;
173;SDS011;75;48.784;9.364;2023-02-24T02:13:01;70.17;;;34.73;;
173;SDS011;75;48.784;9.364;2023-02-24T02:16:11;65.60;;;35.07;;
173;SDS011;75;48.784;9.364;2023-02-24T02:24:59;65.03;;;35.80;;
173;SDS011;75;48.784;9.364;2023-02-24T02:27:58;69.63;;;36.43;;
173;SDS011;75;48.784;9.364;2023-02-24T02:34:24;60.00;;;33.30;;
173;SDS011;75;48.784;9.364;2023-02-24T02:37:04;60.83;;;33.63;;
173;SDS011;75;48.784;9.364;2023-02-24T02:40:06;62.90;;;34.07;;
173;SDS011;75;48.784;9.364;2023-02-24T02:43:05;61.83;;;33.73;;
173;SDS011;75;48.784;9.364;2023-02-24T02:45:56;54.00;;;32.73;;
173;SDS011;75;48.784;9.364;2023-02-24T02:48:53;64.30;;;35.13;;
173;SDS011;75;48.784;9.364;2023-02-24T02:51:40;62.23;;;33.70;;
173;SDS011;75;48.784;9.364;2023-02-24T02:54:32;62.80;;;35.00;;
173;SDS011;75;48.784;9.364;2023-02-24T02:57:20;60.80;;;35.10;;
173;SDS011;75;48.784;9.364;2023-02-24T03:00:09;57.77;;;33.13;;
173;SDS011;75;48.784;9.364;2023-02-24T03:03:08;65.23;;;35.83;;
173;SDS011;75;48.784;9.364;2023-02-24T03:06:04;66.80;;;35.10;;
173;SDS011;75;48.784;9.364;2023-02-24T03:08:51;62.70;;;35.07;;
173;SDS011;75;48.784;9.364;2023-02-24T03:11:40;62.63;;;32.47;;
173;SDS011;75;48.784;9.364;2023-02-24T03:14:27;64.23;;;34.67;;
173;SDS011;75;48.784;9.364;2023-02-24T03:17:13;64.07;;;34.43;;
173;SDS011;75;48.784;9.364;2023-02-24T03:20:02;62.63;;;35.20;;
173;SDS011;75;48.784;9.364;2023-02-24T03:23:00;67.33;;;35.50;;
173;SDS011;75;48.784;9.364;2023-02-24T03:25:55;68.20;;;36.40;;
173;SDS011;75;48.784;9.364;2023-02-24T03:31:43;70.83;;;36.83;;
173;SDS011;75;48.784;9.364;2023-02-24T03:34:33;66.53;;;36.07;;
173;SDS011;75;48.784;9.364;2023-02-24T03:37:21;65.07;;;35.60;;
173;SDS011;75;48.784;9.364;2023-02-24T03:40:10;62.90;;;33.67;;
173;SDS011;75;48.784;9.364;2023-02-24T03:42:59;65.87;;;35.40;;
173;SDS011;75;48.784;9.364;2023-02-24T03:45:48;63.43;;;33.57;;
173;SDS011;75;48.784;9.364;2023-02-24T03:48:33;68.13;;;36.10;;
173;SDS011;75;48.784;9.364;2023-02-24T03:51:21;66.17;;;35.80;;
173;SDS011;75;48.784;9.364;2023-02-24T04:00:13;63.77;;;32.80;;
173;SDS011;75;48.784;9.364;2023-02-24T04:12:10;61.20;;;33.40;;
173;SDS011;75;48.784;9.364;2023-02-24T04:18:05;56.03;;;31.63;;
173;SDS011;75;48.784;9.364;2023-02-24T04:20:54;65.70;;;35.20;;
173;SDS011;75;48.784;9.364;2023-02-24T04:23:41;63.60;;;34.40;;
173;SDS011;75;48.784;9.364;2023-02-24T04:26:26;72.00;;;36.10;;
173;SDS011;75;48.784;9.364;2023-02-24T04:29:12;65.80;;;35.20;;
173;SDS011;75;48.784;9.364;2023-02-24T04:32:04;65.10;;;35.50;;
173;SDS011;75;48.784;9.364;2023-02-24T04:34:49;62.40;;;33.77;;
173;SDS011;75;48.784;9.364;2023-02-24T04:37:34;65.57;;;34.70;;
173;SDS011;75;48.784;9.364;2023-02-24T04:40:20;74.33;;;37.80;;
173;SDS011;75;48.784;9.364;2023-02-24T04:43:05;68.70;;;35.10;;
173;SDS011;75;48.784;9.364;2023-02-24T04:45:50;74.87;;;37.37;;
173;SDS011;75;48.784;9.364;2023-02-24T04:48:35;69.57;;;36.87;;
173;SDS011;75;48.784;9.364;2023-02-24T04:51:21;73.37;;;37.60;;
173;SDS011;75;48.784;9.364;2023-02-24T04:54:06;71.17;;;36.80;;
173;SDS011;75;48.784;9.364;2023-02-24T04:56:51;76.30;;;37.57;;
173;SDS011;75;48.784;9.364;2023-02-24T04:59:37;76.30;;;37.83;;
173;SDS011;75;48.784;9.364;2023-02-24T05:02:21;75.40;;;38.67;;
173;SDS011;75;48.784;9.364;2023-02-24T05:05:06;68.67;;;35.70;;
173;SDS011;75;48.784;9.364;2023-02-24T05:07:51;79.23;;;38.93;;
173;SDS011;75;48.784;9.364;2023-02-24T05:10:41;73.43;;;37.60;;
173;SDS011;75;48.784;9.364;2023-02-24T05:13:30;83.33;;;38.57;;
173;SDS011;75;48.784;9.364;2023-02-24T05:16:15;78.30;;;38.40;;
173;SDS011;75;48.784;9.364;2023-02-24T05:19:00;77.53;;;38.13;;
173;SDS011;75;48.784;9.364;2023-02-24T05:22:04;67.40;;;34.87;;
173;SDS011;75;48.784;9.364;2023-02-24T05:24:54;75.50;;;37.30;;
173;SDS011;75;48.784;9.364;2023-02-24T05:27:39;75.70;;;38.37;;
173;SDS011;75;48.784;9.364;2023-02-24T05:30:24;76.07;;;38.07;;
173;SDS011;75;48.784;9.364;2023-02-24T05:33:08;80.80;;;37.83;;
173;SDS011;75;48.784;9.364;2023-02-24T05:35:53;82.57;;;37.20;;
173;SDS011;75;48.784;9.364;2023-02-24T05:38:39;73.10;;;37.00;;
173;SDS011;75;48.784;9.364;2023-02-24T05:41:26;73.93;;;35.57;;
173;SDS011;75;48.784;9.364;2023-02-24T05:44:18;73.90;;;37.10;;
173;SDS011;75;48.784;9.364;2023-02-24T05:47:06;78.77;;;38.10;;
173;SDS011;75;48.784;9.364;2023-02-24T05:49:50;84.20;;;39.10;;
173;SDS011;75;48.784;9.364;2023-02-24T05:52:36;89.37;;;41.10;;
173;SDS011;75;48.784;9.364;2023-02-24T05:55:21;87.87;;;40.10;;
173;SDS011;75;48.784;9.364;2023-02-24T05:58:06;93.83;;;42.70;;
173;SDS011;75;48.784;9.364;2023-02-24T06:00:50;90.53;;;40.87;;
173;SDS011;75;48.784;9.364;2023-02-24T06:03:35;85.03;;;38.73;;
173;SDS011;75;48.784;9.364;2023-02-24T06:06:20;91.17;;;40.90;;
173;SDS011;75;48.784;9.364;2023-02-24T06:09:06;88.80;;;39.50;;
173;SDS011;75;48.784;9.364;2023-02-24T06:11:53;99.33;;;44.27;;
173;SDS011;75;48.784;9.364;2023-02-24T06:14:37;90.93;;;40.27;;
173;SDS011;75;48.784;9.364;2023-02-24T06:17:22;98.00;;;41.30;;
173;SDS011;75;48.784;9.364;2023-02-24T06:20:08;85.47;;;41.03;;
173;SDS011;75;48.784;9.364;2023-02-24T06:22:58;93.10;;;43.37;;
173;SDS011;75;48.784;9.364;2023-02-24T06:25:44;89.50;;;42.30;;
173;SDS011;75;48.784;9.364;2023-02-24T06:28:29;97.47;;;43.53;;
173;SDS011;75;48.784;9.364;2023-02-24T06:31:14;93.43;;;42.27;;
173;SDS011;75;48.784;9.364;2023-02-24T06:33:59;94.80;;;43.83;;
173;SDS011;75;48.784;9.364;2023-02-24T06:36:44;91.20;;;41.43;;
173;SDS011;75;48.784;9.364;2023-02-24T06:39:31;96.13;;;42.57;;
173;SDS011;75;48.784;9.364;2023-02-24T06:42:17;90.93;;;41.17;;
173;SDS011;75;48.784;9.364;2023-02-24T06:45:02;91.53;;;42.70;;
173;SDS011;75;48.784;9.364;2023-02-24T06:47:47;94.53;;;42.50;;
173;SDS011;75;48.784;9.364;2023-02-24T06:50:32;88.07;;;40.77;;
173;SDS011;75;48.784;9.364;2023-02-24T06:53:16;91.00;;;40.53;;
173;SDS011;75;48.784;9.364;2023-02-24T06:56:05;86.83;;;41.87;;
173;SDS011;75;48.784;9.364;2023-02-24T06:58:57;90.80;;;39.93;;
173;SDS011;75;48.784;9.364;2023-02-24T07:01:41;86.57;;;38.90;;
173;SDS011;75;48.784;9.364;2023-02-24T07:04:29;81.73;;;37.40;;
173;SDS011;75;48.784;9.364;2023-02-24T07:07:24;79.20;;;38.27;;
173;SDS011;75;48.784;9.364;2023-02-24T07:10:11;82.83;;;38.80;;
173;SDS011;75;48.784;9.364;2023-02-24T07:12:56;80.10;;;37.50;;
173;SDS011;75;48.784;9.364;2023-02-24T07:15:41;78.53;;;37.77;;
173;SDS011;75;48.784;9.364;2023-02-24T07:18:32;89.30;;;40.30;;
173;SDS011;75;48.784;9.364;2023-02-24T07:21:20;89.70;;;39.80;;
173;SDS011;75;48.784;9.364;2023-02-24T07:24:06;82.17;;;38.20;;
173;SDS011;75;48.784;9.364;2023-02-24T07:26:55;83.27;;;37.47;;
173;SDS011;75;48.784;9.364;2023-02-24T07:29:40;86.13;;;39.60;;
173;SDS011;75;48.784;9.364;2023-02-24T07:32:25;87.77;;;37.60;;
173;SDS011;75;48.784;9.364;2023-02-24T07:35:10;86.37;;;40.20;;
173;SDS011;75;48.784;9.364;2023-02-24T07:37:55;74.20;;;35.43;;
173;SDS011;75;48.784;9.364;2023-02-24T07:40:44;88.53;;;40.67;;
173;SDS011;75;48.784;9.364;2023-02-24T07:43:30;78.30;;;37.23;;
173;SDS011;75;48.784;9.364;2023-02-24T07:46:15;76.17;;;38.10;;
173;SDS011;75;48.784;9.364;2023-02-24T07:49:04;92.33;;;40.90;;
173;SDS011;75;48.784;9.364;2023-02-24T07:51:52;93.00;;;41.47;;
173;SDS011;75;48.784;9.364;2023-02-24T07:54:40;101.10;;;42.50;;
173;SDS011;75;48.784;9.364;2023-02-24T07:57:25;90.30;;;40.93;;
173;SDS011;75;48.784;9.364;2023-02-24T08:00:12;89.27;;;40.83;;
173;SDS011;75;48.784;9.364;2023-02-24T08:03:03;102.73;;;43.60;;
173;SDS011;75;48.784;9.364;2023-02-24T08:05:48;99.00;;;41.63;;
173;SDS011;75;48.784;9.364;2023-02-24T08:08:33;93.50;;;40.00;;
173;SDS011;75;48.784;9.364;2023-02-24T08:11:37;87.47;;;38.17;;
173;SDS011;75;48.784;9.364;2023-02-24T08:14:26;91.93;;;39.20;;
173;SDS011;75;48.784;9.364;2023-02-24T08:17:16;93.73;;;40.30;;
173;SDS011;75;48.784;9.364;2023-02-24T08:20:02;86.20;;;39.50;;
173;SDS011;75;48.784;9.364;2023-02-24T08:22:56;102.07;;;39.30;;
173;SDS011;75;48.784;9.364;2023-02-24T08:25:40;93.37;;;42.13;;
173;SDS011;75;48.784;9.364;2023-02-24T08:28:27;97.87;;;40.13;;
173;SDS011;75;48.784;9.364;2023-02-24T08:31:12;102.63;;;42.53;;
173;SDS011;75;48.784;9.364;2023-02-24T08:33:57;119.77;;;41.63;;
173;SDS011;75;48.784;9.364;2023-02-24T08:36:41;105.27;;;41.60;;
173;SDS011;75;48.784;9.364;2023-02-24T08:39:30;122.57;;;42.00;;
173;SDS011;75;48.784;9.364;2023-02-24T08:42:19;112.17;;;43.23;;
173;SDS011;75;48.784;9.364;2023-02-24T08:45:14;122.03;;;44.10;;
173;SDS011;75;48.784;9.364;2023-02-24T08:47:59;125.27;;;45.60;;
173;SDS011;75;48.784;9.364;2023-02-24T08:50:44;136.07;;;46.33;;
173;SDS011;75;48.784;9.364;2023-02-24T08:53:29;159.60;;;48.10;;
173;SDS011;75;48.784;9.364;2023-02-24T08:56:17;147.53;;;50.53;;
173;SDS011;75;48.784;9.364;2023-02-24T08:59:06;149.97;;;49.17;;
173;SDS011;75;48.784;9.364;2023-02-24T09:01:58;138.80;;;48.57;;
173;SDS011;75;48.784;9.364;2023-02-24T09:05:02;129.57;;;46.50;;
173;SDS011;75;48.784;9.364;2023-02-24T09:07:50;129.73;;;45.50;;
173;SDS011;75;48.784;9.364;2023-02-24T09:10:37;121.90;;;43.80;;
173;SDS011;75;48.784;9.364;2023-02-24T09:13:23;114.03;;;43.00;;
173;SDS011;75;48.784;9.364;2023-02-24T09:16:19;127.20;;;44.80;;
173;SDS011;75;48.784;9.364;2023-02-24T09:19:05;111.70;;;43.47;;
173;SDS011;75;48.784;9.364;2023-02-24T09:22:13;125.63;;;47.53;;
173;SDS011;75;48.784;9.364;2023-02-24T09:25:12;122.30;;;44.20;;
173;SDS011;75;48.784;9.364;2023-02-24T09:28:08;113.40;;;43.00;;
173;SDS011;75;48.784;9.364;2023-02-24T09:30:56;109.63;;;41.60;;
173;SDS011;75;48.784;9.364;2023-02-24T09:33:41;105.70;;;42.30;;
173;SDS011;75;48.784;9.364;2023-02-24T09:36:33;126.10;;;42.47;;
173;SDS011;75;48.784;9.364;2023-02-24T09:39:34;114.57;;;41.03;;
173;SDS011;75;48.784;9.364;2023-02-24T09:42:37;126.50;;;44.37;;
173;SDS011;75;48.784;9.364;2023-02-24T09:45:31;126.17;;;45.20;;
173;SDS011;75;48.784;9.364;2023-02-24T09:48:16;116.37;;;43.47;;
173;SDS011;75;48.784;9.364;2023-02-24T09:51:05;129.73;;;44.17;;
173;SDS011;75;48.784;9.364;2023-02-24T09:53:53;125.37;;;45.20;;
173;SDS011;75;48.784;9.364;2023-02-24T09:56:40;118.53;;;43.60;;
173;SDS011;75;48.784;9.364;2023-02-24T10:02:16;114.50;;;41.50;;
173;SDS011;75;48.784;9.364;2023-02-24T10:05:08;100.47;;;39.17;;
173;SDS011;75;48.784;9.364;2023-02-24T10:07:58;110.70;;;40.50;;
173;SDS011;75;48.784;9.364;2023-02-24T10:10:43;118.20;;;41.60;;
173;SDS011;75;48.784;9.364;2023-02-24T10:13:47;94.50;;;38.80;;
173;SDS011;75;48.784;9.364;2023-02-24T10:16:36;92.77;;;38.70;;
173;SDS011;75;48.784;9.364;2023-02-24T10:19:28;104.60;;;38.47;;
173;SDS011;75;48.784;9.364;2023-02-24T10:22:17;104.87;;;39.07;;
173;SDS011;75;48.784;9.364;2023-02-24T10:31:10;86.37;;;35.10;;
173;SDS011;75;48.784;9.364;2023-02-24T10:34:09;81.53;;;34.80;;
173;SDS011;75;48.784;9.364;2023-02-24T10:36:54;84.37;;;35.47;;
173;SDS011;75;48.784;9.364;2023-02-24T10:39:40;80.17;;;35.00;;
173;SDS011;75;48.784;9.364;2023-02-24T10:42:28;82.57;;;34.27;;
173;SDS011;75;48.784;9.364;2023-02-24T10:45:25;75.80;;;30.53;;
173;SDS011;75;48.784;9.364;2023-02-24T10:48:21;65.43;;;28.40;;
173;SDS011;75;48.784;9.364;2023-02-24T10:51:14;78.63;;;32.47;;
173;SDS011;75;48.784;9.364;2023-02-24T10:54:12;57.37;;;26.60;;
173;SDS011;75;48.784;9.364;2023-02-24T10:57:15;62.07;;;26.80;;
173;SDS011;75;48.784;9.364;2023-02-24T11:00:19;63.30;;;28.17;;
173;SDS011;75;48.784;9.364;2023-02-24T11:03:36;60.67;;;25.33;;
173;SDS011;75;48.784;9.364;2023-02-24T11:06:25;60.07;;;25.33;;
173;SDS011;75;48.784;9.364;2023-02-24T11:09:25;58.67;;;25.63;;
173;SDS011;75;48.784;9.364;2023-02-24T11:12:12;59.03;;;24.63;;
173;SDS011;75;48.784;9.364;2023-02-24T11:15:29;53.77;;;23.70;;
173;SDS011;75;48.784;9.364;2023-02-24T11:18:34;50.80;;;22.23;;
173;SDS011;75;48.784;9.364;2023-02-24T11:21:21;52.57;;;22.87;;
173;SDS011;75;48.784;9.364;2023-02-24T11:24:06;62.23;;;24.87;;
173;SDS011;75;48.784;9.364;2023-02-24T11:26:57;61.53;;;24.20;;
173;SDS011;75;48.784;9.364;2023-02-24T11:30:06;58.70;;;25.57;;
173;SDS011;75;48.784;9.364;2023-02-24T11:32:54;72.10;;;26.53;;
173;SDS011;75;48.784;9.364;2023-02-24T11:42:07;80.30;;;30.63;;
173;SDS011;75;48.784;9.364;2023-02-24T11:44:55;77.10;;;29.87;;
173;SDS011;75;48.784;9.364;2023-02-24T11:47:43;82.30;;;30.63;;
173;SDS011;75;48.784;9.364;2023-02-24T11:53:27;107.47;;;40.20;;
173;SDS011;75;48.784;9.364;2023-02-24T12:02:05;85.00;;;34.17;;
173;SDS011;75;48.784;9.364;2023-02-24T12:04:55;82.20;;;32.10;;
173;SDS011;75;48.784;9.364;2023-02-24T12:10:41;76.80;;;30.40;;
173;SDS011;75;48.784;9.364;2023-02-24T12:16:35;76.20;;;29.43;;
173;SDS011;75;48.784;9.364;2023-02-24T12:19:22;81.47;;;30.67;;
173;SDS011;75;48.784;9.364;2023-02-24T12:22:12;73.60;;;28.63;;
173;SDS011;75;48.784;9.364;2023-02-24T12:24:57;72.37;;;30.77;;
173;SDS011;75;48.784;9.364;2023-02-24T12:27:45;78.30;;;29.27;;
173;SDS011;75;48.784;9.364;2023-02-24T12:30:36;81.07;;;30.37;;
173;SDS011;75;48.784;9.364;2023-02-24T12:36:47;74.13;;;27.63;;
173;SDS011;75;48.784;9.364;2023-02-24T12:39:39;61.73;;;26.47;;
173;SDS011;75;48.784;9.364;2023-02-24T12:42:28;65.10;;;26.77;;
173;SDS011;75;48.784;9.364;2023-02-24T12:45:16;69.23;;;25.77;;
173;SDS011;75;48.784;9.364;2023-02-24T12:53:45;60.90;;;25.07;;
173;SDS011;75;48.784;9.364;2023-02-24T12:59:27;72.30;;;26.43;;
173;SDS011;75;48.784;9.364;2023-02-24T13:05:07;66.57;;;27.00;;
173;SDS011;75;48.784;9.364;2023-02-24T13:10:59;56.90;;;24.37;;
173;SDS011;75;48.784;9.364;2023-02-24T13:16:49;55.23;;;24.57;;
173;SDS011;75;48.784;9.364;2023-02-24T13:19:33;66.07;;;26.43;;
173;SDS011;75;48.784;9.364;2023-02-24T13:22:23;63.60;;;25.43;;
173;SDS011;75;48.784;9.364;2023-02-24T13:25:11;73.57;;;26.70;;
173;SDS011;75;48.784;9.364;2023-02-24T13:27:57;73.03;;;28.50;;
173;SDS011;75;48.784;9.364;2023-02-24T13:30:42;65.60;;;27.67;;
173;SDS011;75;48.784;9.364;2023-02-24T13:33:29;71.43;;;28.27;;
173;SDS011;75;48.784;9.364;2023-02-24T13:36:15;80.90;;;27.80;;
173;SDS011;75;48.784;9.364;2023-02-24T13:41:47;64.30;;;26.67;;
173;SDS011;75;48.784;9.364;2023-02-24T13:44:32;71.13;;;28.47;;
173;SDS011;75;48.784;9.364;2023-02-24T13:50:23;69.30;;;27.00;;
173;SDS011;75;48.784;9.364;2023-02-24T13:53:12;67.60;;;26.37;;
173;SDS011;75;48.784;9.364;2023-02-24T13:56:05;65.30;;;26.53;;
173;SDS011;75;48.784;9.364;2023-02-24T13:59:02;68.50;;;27.20;;
173;SDS011;75;48.784;9.364;2023-02-24T14:01:59;73.93;;;27.07;;
173;SDS011;75;48.784;9.364;2023-02-24T14:04:52;65.27;;;27.20;;
173;SDS011;75;48.784;9.364;2023-02-24T14:07:38;62.90;;;25.73;;
173;SDS011;75;48.784;9.364;2023-02-24T14:10:25;57.17;;;25.40;;
173;SDS011;75;48.784;9.364;2023-02-24T14:13:17;63.10;;;25.43;;
173;SDS011;75;48.784;9.364;2023-02-24T14:16:04;64.10;;;26.33;;
173;SDS011;75;48.784;9.364;2023-02-24T14:18:53;64.87;;;26.37;;
173;SDS011;75;48.784;9.364;2023-02-24T14:21:45;61.93;;;26.03;;
173;SDS011;75;48.784;9.364;2023-02-24T14:24:30;66.17;;;26.37;;
173;SDS011;75;48.784;9.364;2023-02-24T14:27:23;74.40;;;29.87;;
173;SDS011;75;48.784;9.364;2023-02-24T14:30:54;79.53;;;31.83;;
173;SDS011;75;48.784;9.364;2023-02-24T14:33:19;78.67;;;29.70;;
173;SDS011;75;48.784;9.364;2023-02-24T14:36:13;62.60;;;26.17;;
173;SDS011;75;48.784;9.364;2023-02-24T14:41:46;65.67;;;26.67;;
173;SDS011;75;48.784;9.364;2023-02-24T14:44:31;70.93;;;26.30;;
173;SDS011;75;48.784;9.364;2023-02-24T14:47:17;63.67;;;24.70;;
173;SDS011;75;48.784;9.364;2023-02-24T14:50:03;67.97;;;26.30;;
173;SDS011;75;48.784;9.364;2023-02-24T14:52:52;65.03;;;24.40;;
173;SDS011;75;48.784;9.364;2023-02-24T14:55:39;68.53;;;24.80;;
173;SDS011;75;48.784;9.364;2023-02-24T15:01:20;60.87;;;26.20;;
173;SDS011;75;48.784;9.364;2023-02-24T15:07:15;61.73;;;24.90;;
173;SDS011;75;48.784;9.364;2023-02-24T15:10:01;61.57;;;26.60;;
173;SDS011;75;48.784;9.364;2023-02-24T15:12:48;57.80;;;25.40;;
173;SDS011;75;48.784;9.364;2023-02-24T15:15:34;53.20;;;23.50;;
173;SDS011;75;48.784;9.364;2023-02-24T15:18:23;59.27;;;24.50;;
173;SDS011;75;48.784;9.364;2023-02-24T15:21:17;63.40;;;26.27;;
173;SDS011;75;48.784;9.364;2023-02-24T15:24:48;66.53;;;25.13;;
173;SDS011;75;48.784;9.364;2023-02-24T15:30:03;55.60;;;24.43;;
173;SDS011;75;48.784;9.364;2023-02-24T15:32:47;50.13;;;22.83;;
173;SDS011;75;48.784;9.364;2023-02-24T15:35:33;63.00;;;25.50;;
173;SDS011;75;48.784;9.364;2023-02-24T15:38:24;61.43;;;25.03;;
173;SDS011;75;48.784;9.364;2023-02-24T15:41:12;54.00;;;23.00;;
173;SDS011;75;48.784;9.364;2023-02-24T15:43:57;49.70;;;22.37;;
173;SDS011;75;48.784;9.364;2023-02-24T15:46:42;51.43;;;23.80;;
173;SDS011;75;48.784;9.364;2023-02-24T15:49:29;62.33;;;24.57;;
173;SDS011;75;48.784;9.364;2023-02-24T15:52:14;47.27;;;22.47;;
173;SDS011;75;48.784;9.364;2023-02-24T15:54:59;47.63;;;22.60;;
173;SDS011;75;48.784;9.364;2023-02-24T15:57:45;51.83;;;20.87;;
173;SDS011;75;48.784;9.364;2023-02-24T16:00:31;51.23;;;22.47;;
173;SDS011;75;48.784;9.364;2023-02-24T16:03:15;46.23;;;22.00;;
173;SDS011;75;48.784;9.364;2023-02-24T16:06:00;50.73;;;21.77;;
173;SDS011;75;48.784;9.364;2023-02-24T16:08:45;52.27;;;22.63;;
173;SDS011;75;48.784;9.364;2023-02-24T16:11:30;57.50;;;25.10;;
173;SDS011;75;48.784;9.364;2023-02-24T16:14:20;53.97;;;24.57;;
173;SDS011;75;48.784;9.364;2023-02-24T16:17:06;55.77;;;24.10;;
173;SDS011;75;48.784;9.364;2023-02-24T16:19:51;56.57;;;24.37;;
173;SDS011;75;48.784;9.364;2023-02-24T16:22:38;59.93;;;26.53;;
173;SDS011;75;48.784;9.364;2023-02-24T16:25:23;75.30;;;31.53;;
173;SDS011;75;48.784;9.364;2023-02-24T16:28:14;72.90;;;28.37;;
173;SDS011;75;48.784;9.364;2023-02-24T16:30:59;72.07;;;32.57;;
173;SDS011;75;48.784;9.364;2023-02-24T16:33:44;62.67;;;28.30;;
173;SDS011;75;48.784;9.364;2023-02-24T16:36:29;63.63;;;28.97;;
173;SDS011;75;48.784;9.364;2023-02-24T16:39:14;64.17;;;27.10;;
173;SDS011;75;48.784;9.364;2023-02-24T16:41:59;56.70;;;26.53;;
173;SDS011;75;48.784;9.364;2023-02-24T16:44:49;62.27;;;27.63;;
173;SDS011;75;48.784;9.364;2023-02-24T16:47:33;58.03;;;27.67;;
173;SDS011;75;48.784;9.364;2023-02-24T16:50:19;72.17;;;28.70;;
173;SDS011;75;48.784;9.364;2023-02-24T16:53:05;63.93;;;26.73;;
173;SDS011;75;48.784;9.364;2023-02-24T16:55:50;60.30;;;26.80;;
173;SDS011;75;48.784;9.364;2023-02-24T16:58:35;74.53;;;27.87;;
173;SDS011;75;48.784;9.364;2023-02-24T17:01:20;55.63;;;25.50;;
173;SDS011;75;48.784;9.364;2023-02-24T17:04:05;52.73;;;23.10;;
173;SDS011;75;48.784;9.364;2023-02-24T17:06:52;51.10;;;25.47;;
173;SDS011;75;48.784;9.364;2023-02-24T17:09:37;51.20;;;23.43;;
173;SDS011;75;48.784;9.364;2023-02-24T17:12:21;52.73;;;22.37;;
173;SDS011;75;48.784;9.364;2023-02-24T17:15:07;46.30;;;22.07;;
173;SDS011;75;48.784;9.364;2023-02-24T17:17:52;50.10;;;22.67;;
173;SDS011;75;48.784;9.364;2023-02-24T17:20:40;41.70;;;20.97;;
173;SDS011;75;48.784;9.364;2023-02-24T17:23:25;47.63;;;21.43;;
173;SDS011;75;48.784;9.364;2023-02-24T17:26:12;44.20;;;22.40;;
173;SDS011;75;48.784;9.364;2023-02-24T17:28:57;42.73;;;19.50;;
173;SDS011;75;48.784;9.364;2023-02-24T17:31:42;45.63;;;22.00;;
173;SDS011;75;48.784;9.364;2023-02-24T17:34:26;47.90;;;22.73;;
173;SDS011;75;48.784;9.364;2023-02-24T17:37:11;51.07;;;21.87;;
173;SDS011;75;48.784;9.364;2023-02-24T17:39:56;52.10;;;23.00;;
173;SDS011;75;48.784;9.364;2023-02-24T17:42:40;41.10;;;20.47;;
173;SDS011;75;48.784;9.364;2023-02-24T17:45:25;49.57;;;21.43;;
173;SDS011;75;48.784;9.364;2023-02-24T17:48:10;43.00;;;20.13;;
173;SDS011;75;48.784;9.364;2023-02-24T17:50:55;39.67;;;19.27;;
173;SDS011;75;48.784;9.364;2023-02-24T17:53:40;46.37;;;19.80;;
173;SDS011;75;48.784;9.364;2023-02-24T17:56:24;39.70;;;18.10;;
173;SDS011;75;48.784;9.364;2023-02-24T17:59:09;35.50;;;18.00;;
173;SDS011;75;48.784;9.364;2023-02-24T18:01:54;33.13;;;16.70;;
173;SDS011;75;48.784;9.364;2023-02-24T18:04:38;32.23;;;16.33;;
173;SDS011;75;48.784;9.364;2023-02-24T18:07:23;37.00;;;18.67;;
173;SDS011;75;48.784;9.364;2023-02-24T18:10:08;29.27;;;15.63;;
173;SDS011;75;48.784;9.364;2023-02-24T18:12:54;34.20;;;16.60;;
173;SDS011;75;48.784;9.364;2023-02-24T18:15:39;31.40;;;16.43;;
173;SDS011;75;48.784;9.364;2023-02-24T18:18:24;24.00;;;12.27;;
173;SDS011;75;48.784;9.364;2023-02-24T18:21:09;30.10;;;15.70;;
173;SDS011;75;48.784;9.364;2023-02-24T18:23:54;37.63;;;19.50;;
173;SDS011;75;48.784;9.364;2023-02-24T18:26:39;28.17;;;15.00;;
173;SDS011;75;48.784;9.364;2023-02-24T18:29:23;22.93;;;12.87;;
173;SDS011;75;48.784;9.364;2023-02-24T18:32:08;25.00;;;15.77;;
173;SDS011;75;48.784;9.364;2023-02-24T18:34:53;23.20;;;12.73;;
173;SDS011;75;48.784;9.364;2023-02-24T18:37:38;21.43;;;11.40;;
173;SDS011;75;48.784;9.364;2023-02-24T18:40:23;17.10;;;8.70;;
173;SDS011;75;48.784;9.364;2023-02-24T18:43:08;16.30;;;9.63;;
173;SDS011;75;48.784;9.364;2023-02-24T18:45:56;17.23;;;8.90;;
173;SDS011;75;48.784;9.364;2023-02-24T18:48:41;18.60;;;8.63;;
173;SDS011;75;48.784;9.364;2023-02-24T18:51:29;13.70;;;7.70;;
173;SDS011;75;48.784;9.364;2023-02-24T18:54:15;17.00;;;8.90;;
173;SDS011;75;48.784;9.364;2023-02-24T18:57:00;16.10;;;8.70;;
173;SDS011;75;48.784;9.364;2023-02-24T18:59:47;13.70;;;7.90;;
173;SDS011;75;48.784;9.364;2023-02-24T19:02:32;15.07;;;9.17;;
173;SDS011;75;48.784;9.364;2023-02-24T19:05:16;19.93;;;10.47;;
173;SDS011;75;48.784;9.364;2023-02-24T19:08:03;20.20;;;9.57;;
173;SDS011;75;48.784;9.364;2023-02-24T19:10:47;18.93;;;10.77;;
173;SDS011;75;48.784;9.364;2023-02-24T19:13:32;23.63;;;10.47;;
173;SDS011;75;48.784;9.364;2023-02-24T19:16:17;20.67;;;10.77;;
173;SDS011;75;48.784;9.364;2023-02-24T19:19:02;32.90;;;16.87;;
173;SDS011;75;48.784;9.364;2023-02-24T19:21:47;34.37;;;16.13;;